Time;durP1;ratioP1;P1;durP2;ratioP2;P2;SDS_P1;SDS_P2;PMS_P1;PMS_P2;Temp;Humidity;BMP_temperature;BMP_pressure;BME280_temperature;BME280_humidity;BME280_pressure;Samples;Min_cycle;Max_cycle;Signal;HPM_P1;HPM_P2
2023/08/03 00:00:48;;;;;;;0.53;0.40;;;;;;;24.76;83.73;94904.41;5108864;28;20428;-53
2023/08/03 00:03:16;;;;;;;0.50;0.43;;;;;;;24.88;84.35;94904.19;5112244;28;20486;-53
2023/08/03 00:05:46;;;;;;;2.30;0.57;;;;;;;24.85;82.56;94900.28;5112152;28;20482;-53
2023/08/03 00:08:15;;;;;;;0.50;0.30;;;;;;;24.86;83.22;94893.75;5112725;28;20440;-53
2023/08/03 00:10:43;;;;;;;0.60;0.30;;;;;;;24.90;82.70;94904.59;5112436;27;20436;-53
2023/08/03 00:13:11;;;;;;;0.50;0.30;;;;;;;24.87;83.71;94905.38;5112511;28;20446;-53
2023/08/03 00:15:40;;;;;;;0.50;0.37;;;;;;;24.89;83.47;94905.78;5111832;28;20467;-53
2023/08/03 00:18:09;;;;;;;0.50;0.40;;;;;;;24.87;83.42;94903.41;5111477;28;20431;-53
2023/08/03 00:20:38;;;;;;;0.40;0.30;;;;;;;24.86;82.53;94901.09;5112320;28;20442;-53
2023/08/03 00:23:06;;;;;;;0.50;0.30;;;;;;;24.80;81.84;94911.47;5110401;28;20863;-53
2023/08/03 00:25:34;;;;;;;1.10;0.47;;;;;;;24.82;82.68;94902.97;5111786;28;20952;-52
2023/08/03 00:28:03;;;;;;;0.60;0.40;;;;;;;24.86;80.45;94906.50;5110965;28;21216;-52
2023/08/03 00:30:31;;;;;;;0.50;0.30;;;;;;;24.81;82.44;94909.53;5111921;28;20465;-52
2023/08/03 00:32:59;;;;;;;0.40;0.30;;;;;;;24.81;83.19;94907.63;5111056;28;20518;-52
2023/08/03 00:35:29;;;;;;;3.50;0.40;;;;;;;24.70;82.39;94903.97;5111881;28;20969;-52
2023/08/03 00:37:57;;;;;;;0.50;0.50;;;;;;;24.14;85.89;94911.31;5112414;28;20519;-53
2023/08/03 00:40:26;;;;;;;0.70;0.50;;;;;;;24.45;85.91;94908.28;5111787;28;20435;-52
2023/08/03 00:42:55;;;;;;;0.50;0.40;;;;;;;24.59;84.86;94916.59;5111315;28;20911;-52
2023/08/03 00:45:23;;;;;;;0.60;0.50;;;;;;;24.38;84.94;94913.59;5110858;28;20500;-53
2023/08/03 00:47:52;;;;;;;1.13;0.83;;;;;;;24.52;85.53;94911.84;5110468;28;20471;-53
2023/08/03 00:50:20;;;;;;;0.60;0.50;;;;;;;24.27;86.45;94909.94;5111494;28;20945;-53
2023/08/03 00:52:50;;;;;;;0.73;0.63;;;;;;;24.39;87.30;94907.03;5111096;28;20481;-53
2023/08/03 00:55:18;;;;;;;1.70;0.33;;;;;;;24.47;86.08;94914.09;5112362;28;20432;-52
2023/08/03 00:57:47;;;;;;;0.40;0.30;;;;;;;24.51;85.09;94918.44;5096902;28;20432;-53
2023/08/03 01:00:15;;;;;;;0.50;0.40;;;;;;;24.61;85.28;94922.44;5110983;28;20937;-53
2023/08/03 01:02:44;;;;;;;0.50;0.47;;;;;;;24.43;84.72;94916.78;5111031;28;20494;-53
2023/08/03 01:05:12;;;;;;;0.60;0.47;;;;;;;24.20;87.17;94921.47;5111387;28;20448;-53
2023/08/03 01:07:41;;;;;;;1.00;0.60;;;;;;;24.38;86.73;94919.81;5088688;28;20440;-53
2023/08/03 01:10:11;;;;;;;1.53;0.40;;;;;;;24.48;86.79;94923.81;5116034;28;20444;-53
2023/08/03 01:12:39;;;;;;;5.50;1.70;;;;;;;24.55;86.18;94918.47;5111125;28;20802;-53
2023/08/03 01:15:09;;;;;;;0.70;0.37;;;;;;;24.43;86.65;94905.16;5108175;28;20436;-53
2023/08/03 01:17:37;;;;;;;0.50;0.47;;;;;;;24.43;86.01;94902.44;5104006;28;20439;-53
2023/08/03 01:20:07;;;;;;;4.30;0.40;;;;;;;24.27;86.63;94885.56;5115610;28;20446;-53
2023/08/03 01:22:41;;;;;;;0.50;0.30;;;;;;;24.44;86.45;94914.81;5114341;28;20509;-53
2023/08/03 01:25:10;;;;;;;0.40;0.30;;;;;;;24.03;86.33;94860.47;5114674;28;20491;-52
2023/08/03 01:27:38;;;;;;;0.67;0.40;;;;;;;24.31;87.37;94913.50;5115199;28;20436;-52
2023/08/03 01:30:07;;;;;;;0.87;0.40;;;;;;;24.38;87.58;94913.59;5115032;28;20460;-53
2023/08/03 01:32:36;;;;;;;0.50;0.50;;;;;;;24.23;87.50;94907.22;5114520;28;20439;-53
2023/08/03 01:35:06;;;;;;;0.60;0.40;;;;;;;24.22;87.87;94904.84;5114712;28;20942;-53
2023/08/03 01:37:35;;;;;;;0.50;0.30;;;;;;;24.33;87.41;94908.50;5114972;28;20439;-53
2023/08/03 01:40:06;;;;;;;1.47;0.83;;;;;;;24.17;88.52;94899.75;5089216;28;20497;-53
2023/08/03 01:42:34;;;;;;;0.60;0.60;;;;;;;24.26;88.20;94916.53;5115114;28;20464;-53
2023/08/03 01:45:03;;;;;;;0.50;0.40;;;;;;;24.22;88.71;94921.88;5114686;28;21069;-53
2023/08/03 01:47:31;;;;;;;0.50;0.30;;;;;;;24.16;88.87;94920.63;5113499;28;20474;-53
2023/08/03 01:50:00;;;;;;;0.63;0.50;;;;;;;24.01;89.75;94921.53;5114019;28;20439;-53
2023/08/03 01:52:28;;;;;;;0.70;0.60;;;;;;;24.13;89.83;94923.31;5114862;28;20921;-53
2023/08/03 01:54:56;;;;;;;0.60;0.60;;;;;;;24.13;89.40;94918.66;5115177;28;20497;-52
2023/08/03 01:57:26;;;;;;;0.70;0.70;;;;;;;24.16;88.38;94925.28;5113665;28;20451;-53
2023/08/03 01:59:55;;;;;;;0.60;0.50;;;;;;;24.16;90.00;94930.69;5113721;28;20432;-52
2023/08/03 02:02:23;;;;;;;2.03;0.43;;;;;;;24.02;90.61;94939.34;5114260;28;20988;-53
2023/08/03 02:04:51;;;;;;;0.50;0.30;;;;;;;24.11;90.61;94939.13;5113443;28;20443;-53
2023/08/03 02:07:44;;;;;;;0.63;0.63;;;;;;;24.06;90.08;94934.00;5114290;28;20531;-52
2023/08/03 02:10:13;;;;;;;0.50;0.40;;;;;;;23.91;90.56;94936.47;5114069;28;20439;-53
2023/08/03 02:12:44;;;;;;;0.50;0.43;;;;;;;24.00;91.17;94934.31;5114831;28;20436;-52
2023/08/03 02:15:13;;;;;;;0.50;0.33;;;;;;;24.07;91.53;94940.97;5113932;28;20439;-52
2023/08/03 02:17:42;;;;;;;0.70;0.67;;;;;;;23.90;89.37;94943.03;5112887;28;20497;-53
2023/08/03 02:20:12;;;;;;;0.83;0.77;;;;;;;23.59;92.41;94937.88;5113773;28;20933;-52
2023/08/03 02:22:40;;;;;;;0.60;0.60;;;;;;;23.71;93.76;94951.22;5113854;28;20471;-52
2023/08/03 02:25:09;;;;;;;0.60;0.40;;;;;;;23.80;91.91;94949.06;5114845;28;20436;-52
2023/08/03 02:27:38;;;;;;;0.83;0.40;;;;;;;23.90;91.42;94947.66;5113573;28;20550;-52
2023/08/03 02:30:10;;;;;;;1.00;1.00;;;;;;;23.95;90.86;94939.25;5113783;28;20431;-52
2023/08/03 02:32:39;;;;;;;0.83;0.40;;;;;;;24.02;90.35;94956.38;5113572;28;20975;-52
2023/08/03 02:35:08;;;;;;;0.67;0.50;;;;;;;23.75;92.49;94956.69;5112803;28;20432;-52
2023/08/03 02:37:36;;;;;;;0.73;0.60;;;;;;;23.80;93.21;94962.59;5113346;28;20455;-52
2023/08/03 02:40:08;;;;;;;0.60;0.60;;;;;;;23.81;93.10;94961.44;5086792;28;20479;-52
2023/08/03 02:42:37;;;;;;;0.60;0.40;;;;;;;23.84;92.04;94965.34;5113759;28;20439;-52
2023/08/03 02:45:06;;;;;;;0.90;0.83;;;;;;;23.79;91.78;94969.13;5114540;28;20527;-52
2023/08/03 02:47:36;;;;;;;1.13;1.03;;;;;;;23.59;92.18;94964.13;5113787;28;20475;-52
2023/08/03 02:50:05;;;;;;;0.93;0.83;;;;;;;23.84;91.60;94976.97;5113556;28;20447;-52
2023/08/03 02:52:34;;;;;;;0.80;0.50;;;;;;;23.66;89.87;94965.03;5114204;28;20466;-53
2023/08/03 02:55:02;;;;;;;1.50;1.40;;;;;;;23.78;91.24;94977.63;5113447;28;20478;-53
2023/08/03 02:57:30;;;;;;;0.63;0.40;;;;;;;23.70;92.09;94970.53;5113389;28;20460;-53
2023/08/03 02:59:59;;;;;;;1.03;0.50;;;;;;;23.60;93.06;94973.81;5112213;28;20469;-52
2023/08/03 03:02:27;;;;;;;1.13;1.03;;;;;;;23.72;91.87;94977.16;5113083;28;20523;-53
2023/08/03 03:04:57;;;;;;;0.60;0.50;;;;;;;23.41;93.14;94977.34;5113698;28;20482;-52
2023/08/03 03:07:27;;;;;;;0.40;0.30;;;;;;;23.49;95.09;94980.97;5112487;28;20427;-53
2023/08/03 03:09:55;;;;;;;0.60;0.50;;;;;;;23.53;95.19;94979.88;5112642;28;20439;-53
2023/08/03 03:12:24;;;;;;;0.80;0.70;;;;;;;23.49;94.95;94975.53;5111796;28;20439;-53
2023/08/03 03:14:52;;;;;;;0.50;0.40;;;;;;;23.47;96.18;94975.91;5112972;28;20439;-52
2023/08/03 03:17:20;;;;;;;0.50;0.37;;;;;;;23.48;95.81;94979.41;5112828;28;20441;-52
2023/08/03 03:19:49;;;;;;;0.63;0.30;;;;;;;23.34;96.46;94979.88;5113238;28;20444;-53
2023/08/03 03:22:19;;;;;;;1.00;0.53;;;;;;;23.49;96.57;94981.75;5112261;28;20471;-52
2023/08/03 03:24:47;;;;;;;0.47;0.40;;;;;;;23.49;96.57;94979.03;5112238;28;20471;-52
2023/08/03 03:27:15;;;;;;;0.77;0.77;;;;;;;23.11;98.41;94990.66;5112854;28;20440;-52
2023/08/03 03:29:43;;;;;;;1.17;1.07;;;;;;;23.23;98.79;94979.69;5111402;28;20856;-52
2023/08/03 03:32:12;;;;;;;0.67;0.67;;;;;;;23.41;97.78;94985.47;5112058;27;20440;-52
2023/08/03 03:34:40;;;;;;;0.77;0.77;;;;;;;23.42;97.78;94987.03;5112396;28;20476;-53
2023/08/03 03:37:08;;;;;;;0.50;0.50;;;;;;;23.48;97.52;94990.22;5113181;28;20505;-52
2023/08/03 03:39:38;;;;;;;0.50;0.50;;;;;;;23.52;95.10;94991.84;5113203;28;20470;-53
2023/08/03 03:42:07;;;;;;;0.53;0.43;;;;;;;23.53;96.85;94987.22;5112939;28;20481;-51
2023/08/03 03:44:36;;;;;;;2.63;0.60;;;;;;;23.52;96.97;94983.75;5112835;28;20502;-53
2023/08/03 03:47:05;;;;;;;0.60;0.60;;;;;;;23.53;96.31;94990.69;5113216;28;20444;-53
2023/08/03 03:49:33;;;;;;;0.50;0.37;;;;;;;23.49;96.11;94989.06;5112585;28;20889;-53
2023/08/03 03:52:01;;;;;;;0.50;0.40;;;;;;;23.52;96.87;94991.06;5111816;28;21002;-53
2023/08/03 03:54:30;;;;;;;0.70;0.47;;;;;;;23.60;95.95;94988.16;5111950;28;20440;-53
2023/08/03 03:57:00;;;;;;;0.70;0.63;;;;;;;23.59;94.82;94991.97;5112984;28;20442;-53
2023/08/03 03:59:29;;;;;;;0.70;0.70;;;;;;;23.50;97.06;94996.84;5111852;28;20459;-53
2023/08/03 04:01:57;;;;;;;0.50;0.30;;;;;;;23.59;95.35;94991.97;5112287;28;20497;-53
2023/08/03 04:04:25;;;;;;;0.63;0.57;;;;;;;23.65;95.19;94987.84;5098508;28;20475;-53
2023/08/03 04:06:55;;;;;;;0.60;0.40;;;;;;;23.64;95.05;94988.97;5111287;28;20458;-53
2023/08/03 04:09:23;;;;;;;2.87;0.40;;;;;;;23.74;93.05;94987.59;5110736;27;20470;-53
2023/08/03 04:11:52;;;;;;;3.80;0.40;;;;;;;23.79;92.83;94985.38;5111658;28;20439;-53
2023/08/03 04:14:22;;;;;;;2.67;0.50;;;;;;;23.91;92.32;94989.81;5112173;28;20427;-52
2023/08/03 04:16:50;;;;;;;0.70;0.70;;;;;;;23.96;91.28;94987.59;5111386;28;20474;-52
2023/08/03 04:19:18;;;;;;;1.13;0.70;;;;;;;24.14;91.14;94997.94;5111973;28;20443;-52
2023/08/03 04:21:47;;;;;;;0.73;0.73;;;;;;;24.20;89.78;94999.22;5112006;28;20455;-52
2023/08/03 04:24:15;;;;;;;15.27;0.63;;;;;;;24.20;90.02;95000.00;5110367;28;20569;-52
2023/08/03 04:26:43;;;;;;;1.33;0.60;;;;;;;24.26;88.94;94997.78;5111829;28;20459;-53
2023/08/03 04:29:11;;;;;;;0.70;0.70;;;;;;;24.27;88.65;95000.13;5111486;28;20482;-52
2023/08/03 04:31:41;;;;;;;1.33;1.23;;;;;;;24.31;88.26;94997.47;5108322;28;20447;-52
2023/08/03 04:34:10;;;;;;;0.80;0.80;;;;;;;24.52;87.31;94995.06;5101665;28;20458;-52
2023/08/03 04:36:39;;;;;;;1.87;1.77;;;;;;;24.31;86.53;94954.91;5111767;28;20436;-53
2023/08/03 04:39:07;;;;;;;2.27;0.83;;;;;;;24.24;88.03;95000.06;5111281;28;20525;-53
2023/08/03 04:41:36;;;;;;;1.17;1.07;;;;;;;23.91;90.88;94992.53;5111137;28;20450;-55
2023/08/03 04:44:04;;;;;;;1.87;1.77;;;;;;;23.65;92.81;94998.66;5111321;28;20503;-54
2023/08/03 04:46:32;;;;;;;3.17;1.47;;;;;;;22.87;99.88;95006.38;5111228;28;20440;-52
2023/08/03 04:49:03;;;;;;;1.53;1.43;;;;;;;22.93;100.00;95007.63;5111170;28;20479;-52
2023/08/03 04:51:31;;;;;;;1.27;1.17;;;;;;;22.57;100.00;95014.16;5086326;28;20497;-52
2023/08/03 04:53:59;;;;;;;2.60;1.37;;;;;;;22.46;100.00;95015.84;5111615;28;20439;-52
2023/08/03 04:56:28;;;;;;;2.07;1.20;;;;;;;22.44;100.00;95016.19;5110830;28;20436;-52
2023/08/03 04:58:56;;;;;;;2.27;2.17;;;;;;;22.70;100.00;95015.63;5111723;28;20545;-52
2023/08/03 05:01:25;;;;;;;1.50;1.37;;;;;;;22.71;100.00;95028.03;5111209;28;20446;-53
2023/08/03 05:03:55;;;;;;;1.57;1.47;;;;;;;23.42;100.00;95026.81;5111785;28;20431;-53
2023/08/03 05:06:25;;;;;;;0.97;0.90;;;;;;;23.11;100.00;95019.59;5111486;28;20993;-53
2023/08/03 05:08:53;;;;;;;1.77;1.67;;;;;;;22.94;100.00;95028.91;5111264;28;20436;-53
2023/08/03 05:11:21;;;;;;;1.80;1.33;;;;;;;23.33;98.10;95027.00;5112117;28;20842;-53
2023/08/03 05:13:50;;;;;;;0.80;0.80;;;;;;;23.64;96.43;95029.56;5110722;28;20937;-53
2023/08/03 05:16:24;;;;;;;0.60;0.60;;;;;;;23.82;94.25;95032.59;5110759;28;20471;-53
2023/08/03 05:18:52;;;;;;;0.50;0.30;;;;;;;24.02;93.15;95031.41;5110604;28;20431;-54
2023/08/03 05:21:21;;;;;;;11.40;0.50;;;;;;;24.08;92.30;95035.41;5110617;28;20443;-54
2023/08/03 05:23:50;;;;;;;0.60;0.50;;;;;;;24.18;94.23;95031.31;5110722;28;20532;-54
2023/08/03 05:26:19;;;;;;;0.87;0.87;;;;;;;24.39;91.99;95018.88;5110392;28;20471;-54
2023/08/03 05:28:47;;;;;;;1.30;1.20;;;;;;;24.35;89.23;95030.81;5111281;28;20501;-54
2023/08/03 05:31:15;;;;;;;4.10;2.60;;;;;;;24.02;90.49;95031.41;5111097;28;20501;-53
2023/08/03 05:33:44;;;;;;;1.37;0.80;;;;;;;24.12;92.95;95035.44;5110159;28;20480;-54
2023/08/03 05:36:13;;;;;;;0.93;0.83;;;;;;;24.19;91.92;95014.69;5110430;28;20881;-53
2023/08/03 05:38:41;;;;;;;0.80;0.67;;;;;;;24.60;89.82;95034.69;5110769;28;20440;-60
2023/08/03 05:41:16;;;;;;;0.57;0.57;;;;;;;25.01;85.53;95035.69;5110718;28;20443;-59
2023/08/03 05:43:46;;;;;;;1.57;0.40;;;;;;;25.10;84.08;95030.75;5110750;28;20435;-60
2023/08/03 05:46:15;;;;;;;0.67;0.63;;;;;;;25.03;84.17;95031.44;5110263;28;20471;-60
2023/08/03 05:48:48;;;;;;;2.87;0.67;;;;;;;25.06;83.82;95024.50;5110248;28;20474;-60
2023/08/03 05:51:25;;;;;;;0.50;0.30;;;;;;;25.40;82.75;95028.03;5111249;28;20435;-59
2023/08/03 05:53:54;;;;;;;0.90;0.77;;;;;;;25.41;82.01;95024.16;5113138;28;20443;-59
2023/08/03 05:56:24;;;;;;;0.50;0.50;;;;;;;25.45;81.15;95001.34;5087453;28;20443;-53
2023/08/03 05:58:54;;;;;;;0.90;0.60;;;;;;;25.80;79.53;94982.75;5113746;28;20980;-67
2023/08/03 06:01:24;;;;;;;0.70;0.67;;;;;;;26.20;77.71;95021.91;5114465;28;20440;-58
2023/08/03 06:03:53;;;;;;;0.70;0.67;;;;;;;26.44;76.47;95030.25;5100891;28;20467;-54
2023/08/03 06:06:23;;;;;;;0.87;0.63;;;;;;;26.60;77.20;95021.06;5115019;28;20467;-54
2023/08/03 06:08:53;;;;;;;1.47;1.07;;;;;;;26.24;74.96;95023.50;5114026;28;20478;-55
2023/08/03 06:11:23;;;;;;;0.60;0.60;;;;;;;26.64;76.30;95019.91;5113783;28;20534;-53
2023/08/03 06:13:55;;;;;;;1.43;1.33;;;;;;;26.92;71.87;95014.69;5113836;28;20435;-56
2023/08/03 06:16:24;;;;;;;1.50;1.40;;;;;;;26.76;72.03;95006.06;5113356;28;20436;-54
2023/08/03 06:18:55;;;;;;;1.37;1.27;;;;;;;27.31;70.67;95014.88;5113773;27;20971;-53
2023/08/03 06:21:25;;;;;;;2.43;1.60;;;;;;;27.14;70.56;95012.88;5114181;28;20453;-54
2023/08/03 06:23:58;;;;;;;3.10;1.00;;;;;;;27.40;69.87;95015.31;5112998;28;20882;-48
2023/08/03 06:26:31;;;;;;;0.93;0.93;;;;;;;27.99;69.62;95013.91;5112642;28;20478;-49
2023/08/03 06:29:01;;;;;;;1.57;1.37;;;;;;;27.62;67.76;95016.97;5103081;28;20929;-48
2023/08/03 06:31:37;;;;;;;1.40;1.37;;;;;;;28.08;67.31;95013.59;5114330;28;20443;-48
2023/08/03 06:34:06;;;;;;;0.87;0.87;;;;;;;28.44;66.64;95009.69;5114102;28;20435;-49
2023/08/03 06:36:36;;;;;;;1.10;0.80;;;;;;;28.84;64.93;95006.53;5114407;28;20496;-49
2023/08/03 06:39:05;;;;;;;1.67;0.90;;;;;;;28.65;64.41;95009.69;5114540;28;20508;-49
2023/08/03 06:41:35;;;;;;;1.00;1.00;;;;;;;29.32;63.38;95003.31;5113927;28;20959;-49
2023/08/03 06:44:03;;;;;;;1.73;1.63;;;;;;;28.48;64.91;95015.94;5113931;28;20504;-60
2023/08/03 06:46:31;;;;;;;3.70;1.30;;;;;;;28.47;65.55;95014.34;5086903;28;20532;-60
2023/08/03 06:49:00;;;;;;;1.20;1.17;;;;;;;28.57;64.75;94997.22;5112899;28;20522;-57
2023/08/03 06:51:28;;;;;;;1.37;1.13;;;;;;;28.58;64.81;95003.44;5113918;28;20816;-58
2023/08/03 06:53:57;;;;;;;0.90;0.80;;;;;;;29.47;62.36;95002.09;5113287;28;20475;-58
2023/08/03 06:56:25;;;;;;;0.90;0.90;;;;;;;29.70;62.59;95010.56;5113313;28;20447;-57
2023/08/03 06:58:55;;;;;;;1.23;1.13;;;;;;;29.34;64.59;95009.16;5113342;28;20474;-58
2023/08/03 07:01:24;;;;;;;1.27;1.17;;;;;;;29.66;60.91;95007.06;5114042;28;20443;-59
2023/08/03 07:03:52;;;;;;;1.53;1.43;;;;;;;29.88;61.08;95003.03;5113459;28;20493;-58
2023/08/03 07:06:21;;;;;;;1.47;1.37;;;;;;;30.27;60.94;95010.19;5113595;28;20532;-59
2023/08/03 07:08:49;;;;;;;1.63;1.53;;;;;;;30.31;61.67;95003.53;5113523;28;20570;-57
2023/08/03 07:11:18;;;;;;;0.80;0.80;;;;;;;30.19;60.03;95004.00;5113363;28;20960;-57
2023/08/03 07:13:46;;;;;;;3.30;0.50;;;;;;;30.77;57.09;94992.97;5112974;28;20929;-57
2023/08/03 07:16:16;;;;;;;0.87;0.87;;;;;;;31.16;55.54;95003.56;5113022;28;20948;-57
2023/08/03 07:18:44;;;;;;;0.80;0.70;;;;;;;31.24;57.17;95005.03;5112691;28;20459;-57
2023/08/03 07:21:13;;;;;;;0.90;0.90;;;;;;;31.62;55.92;94996.75;5113835;28;20435;-57
2023/08/03 07:23:41;;;;;;;1.40;1.30;;;;;;;31.66;55.84;95000.22;5113225;28;20443;-57
2023/08/03 07:26:15;;;;;;;1.50;1.40;;;;;;;31.86;53.56;95001.91;5113572;28;20566;-58
2023/08/03 07:28:43;;;;;;;1.13;1.13;;;;;;;31.99;52.62;94993.91;5113194;28;20439;-58
2023/08/03 07:31:15;;;;;;;1.07;0.97;;;;;;;32.08;52.89;94991.41;5112577;28;20431;-58
2023/08/03 07:33:44;;;;;;;0.90;0.90;;;;;;;32.26;53.29;94993.91;5113684;28;20503;-58
2023/08/03 07:36:17;;;;;;;2.70;2.50;;;;;;;32.06;52.82;94982.84;5112442;28;20973;-58
2023/08/03 07:38:45;;;;;;;0.70;0.70;;;;;;;32.01;52.50;94966.84;5113207;28;20491;-58
2023/08/03 07:41:14;;;;;;;1.30;1.30;;;;;;;32.39;53.00;94984.66;5113139;28;20446;-58
2023/08/03 07:43:42;;;;;;;0.40;0.40;;;;;;;33.23;50.96;94982.41;5113206;28;20484;-58
2023/08/03 07:46:10;;;;;;;1.50;1.40;;;;;;;32.94;49.24;94980.63;5112546;28;21006;-58
2023/08/03 07:48:40;;;;;;;1.00;0.90;;;;;;;33.23;48.62;94981.63;5112884;28;20522;-58
2023/08/03 07:51:13;;;;;;;1.40;1.40;;;;;;;33.60;49.02;94978.53;5112148;28;21022;-59
2023/08/03 07:53:42;;;;;;;1.83;1.23;;;;;;;32.79;49.01;94979.31;5112843;28;20431;-59
2023/08/03 07:56:21;;;;;;;0.50;0.50;;;;;;;33.35;49.44;94975.50;5112709;28;20441;-58
2023/08/03 07:58:51;;;;;;;1.93;1.23;;;;;;;33.72;49.64;94979.88;5112356;28;20501;-57
2023/08/03 08:01:21;;;;;;;1.10;1.10;;;;;;;34.24;48.06;94968.88;5112842;28;20431;-58
2023/08/03 08:03:51;;;;;;;0.83;0.83;;;;;;;33.42;48.42;94799.50;5112618;28;20912;-58
2023/08/03 08:06:21;;;;;;;0.60;0.60;;;;;;;34.83;46.84;94969.38;5112522;28;20506;-58
2023/08/03 08:08:52;;;;;;;1.10;0.40;;;;;;;35.43;46.17;94964.19;5110488;28;20443;-57
2023/08/03 08:11:20;;;;;;;0.73;0.60;;;;;;;34.71;45.58;94959.03;5102366;28;20874;-55
2023/08/03 08:13:48;;;;;;;1.73;1.03;;;;;;;34.14;47.64;94962.41;5112197;28;20435;-57
2023/08/03 08:16:17;;;;;;;2.13;2.03;;;;;;;33.94;46.85;94958.94;5111961;28;20467;-54
2023/08/03 08:18:45;;;;;;;2.50;1.17;;;;;;;34.68;46.40;94957.19;5112135;28;20518;-58
2023/08/03 08:21:15;;;;;;;1.60;1.40;;;;;;;34.54;45.98;94962.22;5112742;28;20526;-58
2023/08/03 08:23:44;;;;;;;1.30;1.20;;;;;;;34.93;47.49;94960.06;5112096;28;20197;-58
2023/08/03 08:26:13;;;;;;;0.83;0.83;;;;;;;35.24;45.51;94954.91;5112451;28;20462;-58
2023/08/03 08:28:42;;;;;;;1.10;1.00;;;;;;;35.19;45.04;94957.41;5112013;28;20651;-58
2023/08/03 08:31:24;;;;;;;0.67;0.67;;;;;;;35.15;45.68;94953.97;5112570;28;20635;-59
2023/08/03 08:33:54;;;;;;;0.50;0.47;;;;;;;36.04;45.26;94950.97;5112252;28;20203;-59
2023/08/03 08:36:24;;;;;;;0.70;0.50;;;;;;;35.97;44.21;94945.66;5112366;28;20269;-60
2023/08/03 08:38:52;;;;;;;0.50;0.50;;;;;;;36.07;44.41;94947.31;5111935;28;20189;-61
2023/08/03 08:41:20;;;;;;;0.50;0.50;;;;;;;35.92;43.91;94943.44;5112237;28;20193;-60
2023/08/03 08:43:49;;;;;;;0.63;0.57;;;;;;;36.65;43.29;94922.19;5112082;28;20197;-59
2023/08/03 08:46:17;;;;;;;0.70;0.70;;;;;;;35.77;44.34;94936.81;5111727;28;20304;-60
2023/08/03 08:48:45;;;;;;;3.13;0.70;;;;;;;36.47;43.78;94944.06;5111806;28;20600;-60
2023/08/03 08:51:18;;;;;;;0.53;0.53;;;;;;;35.97;43.62;94944.88;5111797;28;20197;-60
2023/08/03 08:54:09;;;;;;;1.03;0.93;;;;;;;35.41;44.09;94897.72;5111228;28;20200;-60
2023/08/03 08:56:40;;;;;;;0.90;0.90;;;;;;;35.97;43.39;94942.13;5112399;28;20279;-60
2023/08/03 08:59:11;;;;;;;0.67;0.60;;;;;;;36.62;42.70;94939.63;5111664;28;20732;-61
2023/08/03 09:01:50;;;;;;;0.77;0.77;;;;;;;37.25;43.28;94937.41;5112179;28;20193;-60
2023/08/03 09:04:29;;;;;;;0.80;0.80;;;;;;;37.16;41.29;94929.06;5111688;28;20215;-61
2023/08/03 09:07:00;;;;;;;0.73;0.73;;;;;;;37.31;43.68;94927.31;5112101;28;20534;-60
2023/08/03 09:09:34;;;;;;;0.50;0.40;;;;;;;37.79;41.67;94927.91;5111740;28;20203;-61
2023/08/03 09:12:02;;;;;;;3.05;1.20;;;;;;;36.99;43.44;94922.16;5111837;28;20193;-62
2023/08/03 09:14:32;;;;;;;0.57;0.57;;;;;;;37.84;41.24;94911.50;5111777;28;20254;-62
2023/08/03 09:17:18;;;;;;;0.70;0.60;;;;;;;37.36;41.01;94910.16;5111426;28;20201;-61
2023/08/03 09:19:47;;;;;;;0.60;0.60;;;;;;;37.65;41.39;94875.91;5111098;28;20205;-61
2023/08/03 09:22:20;;;;;;;0.55;0.50;;;;;;;38.48;39.62;94917.28;5111269;28;20196;-63
2023/08/03 09:25:05;;;;;;;3.33;0.90;;;;;;;38.23;40.50;94911.97;5111371;28;20280;-62
2023/08/03 09:27:34;;;;;;;1.00;1.00;;;;;;;37.93;42.24;94908.00;5111931;27;20236;-62
2023/08/03 09:30:07;;;;;;;1.15;1.15;;;;;;;37.88;41.39;94906.63;5114874;28;20189;-62
2023/08/03 09:32:38;;;;;;;0.90;0.90;;;;;;;37.64;40.82;94902.81;5115679;28;20286;-62
2023/08/03 09:35:18;;;;;;;0.98;0.98;;;;;;;37.60;41.55;94898.63;5091961;28;20185;-61
2023/08/03 09:37:47;;;;;;;1.10;1.00;;;;;;;37.12;42.66;94881.44;5117387;28;20650;-60
2023/08/03 09:40:19;;;;;;;0.77;0.77;;;;;;;37.37;40.74;94897.84;5114726;28;20224;-61
2023/08/03 09:42:49;;;;;;;0.85;0.85;;;;;;;38.48;39.74;94893.09;5115219;28;20242;-61
2023/08/03 09:45:17;;;;;;;0.50;0.50;;;;;;;38.46;38.78;94887.25;5115005;28;20203;-61
2023/08/03 09:47:50;;;;;;;1.13;0.80;;;;;;;38.44;37.81;94886.94;5114827;28;20238;-61
2023/08/03 09:50:22;;;;;;;0.50;0.50;;;;;;;38.80;37.90;94880.69;5103682;28;20282;-61
2023/08/03 09:52:54;;;;;;;0.57;0.43;;;;;;;39.03;37.87;94890.38;5114191;28;20254;-61
2023/08/03 09:55:29;;;;;;;0.82;0.82;;;;;;;39.32;35.73;94837.97;5114899;28;20244;-61
2023/08/03 09:58:03;;;;;;;0.77;0.77;;;;;;;39.63;36.18;94871.78;5115480;28;20193;-62
2023/08/03 10:00:32;;;;;;;0.50;0.40;;;;;;;39.46;36.50;94867.03;5114370;28;20200;-62
2023/08/03 10:03:07;;;;;;;0.52;0.52;;;;;;;39.14;37.11;94846.31;5115254;28;20220;-62
2023/08/03 10:05:39;;;;;;;1.08;0.82;;;;;;;39.49;35.91;94861.34;5114902;28;20204;-62
2023/08/03 10:08:15;;;;;;;0.88;0.88;;;;;;;39.50;36.37;94862.88;5113288;28;20359;-58
2023/08/03 10:10:49;;;;;;;0.68;0.63;;;;;;;40.06;37.03;94853.09;5114497;28;20197;-59
2023/08/03 10:13:18;;;;;;;0.93;0.93;;;;;;;39.94;35.23;94852.06;5115223;27;20196;-58
2023/08/03 10:15:47;;;;;;;0.90;0.90;;;;;;;38.70;35.30;94854.19;5114645;28;20197;-59
2023/08/03 10:18:17;;;;;;;1.33;1.15;;;;;;;37.68;35.99;94853.63;5115021;28;20654;-59
2023/08/03 10:21:05;;;;;;;0.85;0.85;;;;;;;39.14;36.32;94847.06;5114380;28;20580;-58
2023/08/03 10:23:38;;;;;;;0.57;0.40;;;;;;;40.01;33.60;94831.53;5114734;28;20208;-58
2023/08/03 10:26:08;;;;;;;1.00;1.00;;;;;;;39.90;33.82;94837.59;5114736;28;20193;-58
2023/08/03 10:28:47;;;;;;;0.50;0.50;;;;;;;40.74;34.46;94829.81;5109092;28;20553;-58
2023/08/03 10:31:18;;;;;;;0.40;0.40;;;;;;;41.02;33.43;94824.78;5108288;28;20201;-58
2023/08/03 10:34:08;;;;;;;0.63;0.63;;;;;;;41.67;32.56;94823.63;5114080;28;20197;-59
2023/08/03 10:36:39;;;;;;;0.50;0.50;;;;;;;41.84;31.03;94816.31;5113312;28;20192;-58
2023/08/03 10:39:11;;;;;;;0.40;0.30;;;;;;;41.39;31.20;94812.06;5114146;28;20219;-59
2023/08/03 10:41:45;;;;;;;0.50;0.50;;;;;;;40.94;31.52;94770.81;5113762;28;20207;-58
2023/08/03 10:44:26;;;;;;;0.73;0.73;;;;;;;41.11;31.14;94805.97;5114182;28;20223;-58
2023/08/03 10:46:57;;;;;;;0.50;0.50;;;;;;;41.68;33.42;94802.88;5114161;28;20196;-58
2023/08/03 10:49:49;;;;;;;0.50;0.50;;;;;;;41.62;30.89;94802.06;5113595;28;20277;-58
2023/08/03 10:52:20;;;;;;;0.70;0.70;;;;;;;39.93;31.49;94803.34;5113716;28;20250;-58
2023/08/03 10:54:49;;;;;;;0.57;0.57;;;;;;;40.30;31.46;94795.59;5114042;28;20562;-59
2023/08/03 10:57:22;;;;;;;0.30;0.30;;;;;;;41.55;30.44;94792.06;5113813;28;20197;-59
2023/08/03 10:59:52;;;;;;;0.80;0.80;;;;;;;40.47;31.12;94802.25;5113967;28;20197;-58
2023/08/03 11:02:28;;;;;;;0.50;0.50;;;;;;;40.64;31.66;94794.22;5113524;28;20223;-58
2023/08/03 11:04:59;;;;;;;0.75;0.75;;;;;;;39.65;31.79;94799.94;5113408;28;20558;-59
2023/08/03 11:07:30;;;;;;;0.52;0.50;;;;;;;40.32;34.18;94782.75;5112841;28;20295;-58
2023/08/03 11:10:00;;;;;;;1.63;0.60;;;;;;;40.66;32.54;94783.44;5113161;28;20189;-59
2023/08/03 11:12:30;;;;;;;0.40;0.30;;;;;;;41.32;31.32;94786.66;5113116;28;20197;-58
2023/08/03 11:15:01;;;;;;;0.57;0.52;;;;;;;40.64;31.93;94786.66;5113082;28;20204;-59
2023/08/03 11:17:31;;;;;;;0.77;0.77;;;;;;;40.62;31.64;94780.81;5113671;28;20193;-59
2023/08/03 11:20:01;;;;;;;0.98;0.88;;;;;;;39.04;33.23;94789.38;5102196;28;20194;-59
2023/08/03 11:22:30;;;;;;;0.68;0.68;;;;;;;38.81;33.30;94776.94;5112973;28;20541;-58
2023/08/03 11:25:04;;;;;;;0.93;0.70;;;;;;;39.67;32.65;94786.38;5112703;28;20666;-59
2023/08/03 11:27:33;;;;;;;0.52;0.52;;;;;;;38.91;32.39;94774.91;5113044;28;20254;-59
2023/08/03 11:30:03;;;;;;;0.68;0.68;;;;;;;38.33;33.79;94775.84;5113212;28;20633;-59
2023/08/03 11:32:32;;;;;;;0.63;0.60;;;;;;;37.58;34.82;94773.84;5102041;28;20257;-60
2023/08/03 11:35:03;;;;;;;1.02;0.90;;;;;;;36.51;36.40;94782.63;5111540;28;20189;-59
2023/08/03 11:37:32;;;;;;;0.70;0.70;;;;;;;36.16;36.17;94767.28;5113178;28;20357;-59
2023/08/03 11:40:04;;;;;;;0.85;0.85;;;;;;;35.92;37.31;94772.41;5112707;28;20196;-49
2023/08/03 11:42:38;;;;;;;0.88;0.60;;;;;;;37.31;35.65;94771.75;5113016;28;20224;-49
2023/08/03 11:45:07;;;;;;;0.50;0.50;;;;;;;38.61;33.83;94771.84;5112931;27;20232;-52
2023/08/03 11:47:43;;;;;;;0.63;0.32;;;;;;;39.76;34.32;94774.47;5112377;28;20327;-49